createdAt,value
2019-03-31T00:01:55.209Z,6.30
2019-03-31T00:04:23.612Z,6.20
2019-03-31T00:09:20.080Z,6.10
2019-03-31T00:14:16.587Z,6.10
2019-03-31T00:16:44.996Z,6.00
2019-03-31T00:24:09.606Z,5.90
2019-03-31T00:26:38.014Z,6.00
2019-03-31T00:29:06.465Z,6.00
2019-03-31T00:31:34.897Z,5.80
2019-03-31T00:34:03.308Z,5.70
2019-03-31T00:36:31.720Z,5.70
2019-03-31T00:39:00.128Z,5.70
2019-03-31T00:41:28.581Z,5.80
2019-03-31T00:43:56.968Z,5.70
2019-03-31T00:46:25.384Z,5.60
2019-03-31T00:48:53.800Z,5.70
2019-03-31T00:51:22.364Z,5.80
2019-03-31T00:56:18.868Z,5.90
2019-03-31T01:01:20.388Z,5.80
2019-03-31T01:03:48.867Z,5.80
2019-03-31T01:06:18.121Z,5.90
2019-03-31T01:08:46.580Z,5.90
2019-03-31T01:13:46.438Z,5.70
2019-03-31T01:16:16.369Z,5.70
2019-03-31T01:18:45.037Z,5.70
2019-03-31T01:21:13.536Z,5.60
2019-03-31T01:23:42.011Z,5.60
2019-03-31T01:26:10.645Z,5.50
2019-03-31T01:28:39.241Z,5.40
2019-03-31T01:31:07.693Z,5.40
2019-03-31T01:33:36.172Z,5.30
2019-03-31T01:36:06.352Z,5.30
2019-03-31T01:38:34.780Z,5.20
2019-03-31T01:41:03.217Z,5.30
2019-03-31T01:43:31.605Z,5.20
2019-03-31T01:48:28.357Z,5.20
2019-03-31T01:50:56.797Z,5.10
2019-03-31T01:53:25.250Z,5.00
2019-03-31T01:55:53.664Z,4.90
2019-03-31T01:58:22.084Z,4.90
2019-03-31T02:00:54.533Z,4.90
2019-03-31T02:03:22.958Z,4.90
2019-03-31T02:05:51.393Z,4.90
2019-03-31T02:08:19.848Z,5.00
2019-03-31T02:13:16.373Z,5.30
2019-03-31T02:15:44.785Z,5.20
2019-03-31T02:18:13.292Z,5.10
2019-03-31T02:20:41.722Z,5.00
2019-03-31T02:23:10.149Z,5.10
2019-03-31T02:25:38.552Z,5.10
2019-03-31T02:28:06.956Z,5.10
2019-03-31T02:35:31.648Z,4.90
2019-03-31T02:38:00.073Z,4.90
2019-03-31T02:40:28.459Z,5.00
2019-03-31T02:42:56.949Z,5.00
2019-03-31T02:45:25.395Z,5.00
2019-03-31T02:47:53.797Z,5.00
2019-03-31T02:53:01.190Z,4.80
2019-03-31T02:55:29.642Z,4.80
2019-03-31T02:57:58.362Z,4.80
2019-03-31T03:00:26.861Z,4.80
2019-03-31T03:05:24.580Z,4.80
2019-03-31T03:07:55.535Z,4.70
2019-03-31T03:10:25.181Z,4.60
2019-03-31T03:12:56.041Z,4.60
2019-03-31T03:20:39.969Z,4.40
2019-03-31T03:23:08.372Z,4.40
2019-03-31T03:25:56.913Z,4.40
2019-03-31T03:28:25.629Z,4.40
2019-03-31T03:30:54.411Z,4.30
2019-03-31T03:33:23.275Z,4.30
2019-03-31T03:35:52.042Z,4.20
2019-03-31T03:38:20.508Z,4.20
2019-03-31T03:43:17.101Z,4.10
2019-03-31T03:48:13.608Z,4.00
2019-03-31T03:50:42.108Z,4.00
2019-03-31T03:53:10.565Z,4.00
2019-03-31T03:55:38.949Z,4.00
2019-03-31T03:58:07.396Z,4.00
2019-03-31T04:05:32.015Z,4.00
2019-03-31T04:08:00.453Z,4.00
2019-03-31T04:13:14.112Z,4.00
2019-03-31T04:18:10.695Z,4.00
2019-03-31T04:20:39.755Z,3.90
2019-03-31T04:23:08.447Z,3.80
2019-03-31T04:25:37.202Z,3.90
2019-03-31T04:28:05.602Z,3.90
2019-03-31T04:30:34.009Z,3.90
2019-03-31T04:33:02.504Z,3.90
2019-03-31T04:35:30.981Z,3.90
2019-03-31T04:37:59.410Z,3.90
2019-03-31T04:40:27.801Z,3.80
2019-03-31T04:42:56.232Z,3.70
2019-03-31T04:45:43.978Z,3.60
2019-03-31T04:50:40.610Z,3.60
2019-03-31T04:53:09.005Z,3.50
2019-03-31T04:55:37.405Z,3.50
2019-03-31T04:58:05.823Z,3.50
2019-03-31T05:00:34.230Z,3.50
2019-03-31T05:03:02.638Z,3.50
2019-03-31T05:05:31.021Z,3.50
2019-03-31T05:07:59.496Z,3.60
2019-03-31T05:12:55.994Z,3.60
2019-03-31T05:15:24.418Z,3.60
2019-03-31T05:17:53.384Z,3.60
2019-03-31T05:20:21.788Z,3.70
2019-03-31T05:22:52.801Z,3.70
2019-03-31T05:25:20.325Z,3.80
2019-03-31T05:27:48.736Z,3.80
2019-03-31T05:30:17.235Z,3.90
2019-03-31T05:32:45.642Z,4.00
2019-03-31T05:35:14.068Z,4.10
2019-03-31T05:37:50.829Z,4.10
2019-03-31T05:40:12.820Z,4.10
2019-03-31T05:42:41.257Z,4.20
2019-03-31T05:45:09.775Z,4.20
2019-03-31T05:52:34.455Z,4.40
2019-03-31T05:55:03.227Z,4.40
2019-03-31T05:57:31.627Z,4.40
2019-03-31T06:00:00.025Z,4.50
2019-03-31T06:02:47.782Z,4.70
2019-03-31T06:05:16.219Z,4.80
2019-03-31T06:10:12.725Z,5.10
2019-03-31T06:12:41.148Z,5.20
2019-03-31T06:15:09.689Z,5.20
2019-03-31T06:20:07.065Z,5.50
2019-03-31T06:22:35.456Z,5.70
2019-03-31T06:25:05.405Z,5.90
2019-03-31T06:27:33.883Z,6.00
2019-03-31T06:30:02.302Z,6.10
2019-03-31T06:32:30.724Z,6.50
2019-03-31T06:39:55.337Z,8.40
2019-03-31T06:42:23.757Z,9.20
2019-03-31T06:44:52.191Z,9.90
2019-03-31T06:47:20.599Z,10.50
2019-03-31T06:49:49.039Z,11.00
2019-03-31T06:52:17.438Z,11.40
2019-03-31T06:54:45.897Z,11.90
2019-03-31T06:57:14.321Z,12.30
2019-03-31T06:59:42.884Z,12.60
2019-03-31T07:02:11.344Z,12.90
2019-03-31T07:07:07.865Z,13.40
2019-03-31T07:09:36.285Z,13.60
2019-03-31T07:12:04.740Z,13.60
2019-03-31T07:14:33.208Z,13.90
2019-03-31T07:19:29.748Z,14.60
2019-03-31T07:24:26.341Z,14.70
2019-03-31T07:26:54.750Z,14.80
2019-03-31T07:29:23.162Z,15.00
2019-03-31T07:31:51.560Z,15.10
2019-03-31T07:34:19.979Z,15.30
2019-03-31T07:36:48.392Z,15.50
2019-03-31T07:39:17.282Z,15.60
2019-03-31T07:41:46.177Z,15.70
2019-03-31T07:44:15.443Z,15.80
2019-03-31T07:46:43.990Z,15.80
2019-03-31T07:49:12.445Z,15.90
2019-03-31T07:54:08.960Z,16.20
2019-03-31T07:59:05.507Z,17.00
2019-03-31T08:01:33.935Z,17.40
2019-03-31T08:04:02.345Z,17.70
2019-03-31T08:06:30.753Z,18.10
2019-03-31T08:11:27.280Z,18.60
2019-03-31T08:13:55.701Z,18.90
2019-03-31T08:16:24.115Z,18.90
2019-03-31T08:18:52.598Z,19.00
2019-03-31T08:23:49.246Z,19.40
2019-03-31T08:28:45.752Z,19.90
2019-03-31T08:31:14.261Z,20.00
2019-03-31T08:36:10.813Z,19.50
2019-03-31T08:38:39.216Z,19.60
2019-03-31T08:41:07.638Z,20.10
2019-03-31T08:43:36.055Z,20.10
2019-03-31T08:46:04.476Z,20.50
2019-03-31T08:48:32.872Z,21.00
2019-03-31T08:51:01.321Z,21.40
2019-03-31T08:53:29.797Z,21.60
2019-03-31T08:55:58.250Z,21.40
2019-03-31T08:58:26.654Z,21.40
2019-03-31T09:00:59.853Z,21.50
2019-03-31T09:03:28.361Z,21.10
2019-03-31T09:06:02.169Z,20.80
2019-03-31T09:08:26.922Z,20.20
2019-03-31T09:10:55.338Z,20.20
2019-03-31T09:13:23.767Z,20.50
2019-03-31T09:15:52.184Z,21.00
2019-03-31T09:25:47.533Z,21.60
2019-03-31T09:28:15.030Z,21.70
2019-03-31T09:30:43.473Z,21.60
2019-03-31T09:33:11.935Z,21.40
2019-03-31T09:35:40.348Z,21.40
2019-03-31T09:38:08.783Z,21.60
2019-03-31T09:40:37.203Z,21.80
2019-03-31T09:43:05.628Z,21.90
2019-03-31T09:48:02.212Z,21.30
2019-03-31T09:50:30.728Z,20.80
2019-03-31T09:52:59.209Z,20.50
2019-03-31T09:55:27.637Z,20.00
2019-03-31T10:00:43.877Z,20.00
2019-03-31T10:03:12.376Z,20.00
2019-03-31T10:05:40.808Z,20.00
2019-03-31T10:08:09.214Z,20.30
2019-03-31T10:10:37.663Z,20.30
2019-03-31T10:13:06.082Z,19.60
2019-03-31T10:15:34.500Z,19.70
2019-03-31T10:18:03.001Z,19.70
2019-03-31T10:20:31.880Z,19.70
2019-03-31T10:23:00.405Z,20.10
2019-03-31T10:27:56.925Z,20.10
2019-03-31T10:30:38.703Z,19.70
2019-03-31T10:33:08.149Z,19.80
2019-03-31T10:35:36.557Z,20.00
2019-03-31T10:38:05.711Z,19.90
2019-03-31T10:40:34.205Z,19.70
2019-03-31T10:43:02.626Z,19.60
2019-03-31T10:45:31.029Z,19.50
2019-03-31T10:47:59.436Z,19.60
2019-03-31T10:52:55.936Z,19.40
2019-03-31T10:55:24.356Z,18.30
2019-03-31T10:57:52.768Z,17.80
2019-03-31T11:00:32.720Z,17.40
2019-03-31T11:03:01.127Z,17.30
2019-03-31T11:05:29.538Z,17.50
2019-03-31T11:07:57.942Z,17.70
2019-03-31T11:15:22.630Z,17.50
2019-03-31T11:17:51.148Z,17.40
2019-03-31T11:25:29.330Z,17.30
2019-03-31T11:27:56.504Z,17.30
2019-03-31T11:30:24.925Z,17.40
2019-03-31T11:32:53.353Z,17.30
2019-03-31T11:35:21.797Z,17.30
2019-03-31T11:37:50.214Z,17.30
2019-03-31T11:40:18.720Z,17.10
2019-03-31T11:42:47.121Z,17.10
2019-03-31T11:45:15.905Z,17.20
2019-03-31T11:47:44.300Z,17.20
2019-03-31T11:50:13.156Z,17.30
2019-03-31T11:52:41.608Z,17.30
2019-03-31T11:55:10.088Z,17.20
2019-03-31T11:57:38.504Z,17.20
2019-03-31T12:00:15.526Z,17.20
2019-03-31T12:02:43.947Z,17.20
2019-03-31T12:05:13.240Z,17.00
2019-03-31T12:07:46.877Z,17.00
2019-03-31T12:10:11.928Z,17.10
2019-03-31T12:12:40.353Z,17.20
2019-03-31T12:15:09.614Z,17.40
2019-03-31T12:17:38.060Z,17.30
2019-03-31T12:20:10.004Z,17.30
2019-03-31T12:22:38.419Z,17.20
2019-03-31T12:25:08.367Z,17.10
2019-03-31T12:27:36.987Z,17.20
2019-03-31T12:35:08.264Z,17.00
2019-03-31T12:37:42.816Z,17.10
2019-03-31T12:40:09.304Z,17.10
2019-03-31T12:42:37.714Z,17.30
2019-03-31T12:45:06.354Z,17.30
2019-03-31T12:47:34.764Z,17.40
2019-03-31T12:50:04.273Z,17.30
2019-03-31T12:55:02.497Z,17.30
2019-03-31T13:02:27.096Z,17.20
2019-03-31T13:04:55.507Z,17.10
2019-03-31T13:07:23.933Z,17.10
2019-03-31T13:09:52.364Z,17.10
2019-03-31T13:12:20.784Z,17.00
2019-03-31T13:14:49.185Z,17.00
2019-03-31T13:19:45.669Z,17.10
2019-03-31T13:22:14.160Z,17.20
2019-03-31T13:27:10.645Z,17.20
2019-03-31T13:29:39.072Z,17.30
2019-03-31T13:32:07.493Z,17.20
2019-03-31T13:34:35.908Z,17.30
2019-03-31T13:39:32.472Z,17.20
2019-03-31T13:44:28.957Z,17.20
2019-03-31T13:46:57.376Z,17.10
2019-03-31T13:51:53.896Z,17.00
2019-03-31T13:54:22.384Z,17.10
2019-03-31T13:56:50.854Z,17.10
2019-03-31T13:59:20.276Z,17.10
2019-03-31T14:04:16.861Z,17.00
2019-03-31T14:06:45.272Z,17.00
2019-03-31T14:09:13.679Z,17.00
2019-03-31T14:11:42.172Z,17.00
2019-03-31T14:14:10.636Z,17.00
2019-03-31T14:16:39.049Z,17.00
2019-03-31T14:19:07.462Z,17.00
2019-03-31T14:21:35.861Z,16.90
2019-03-31T14:24:04.340Z,17.00
2019-03-31T14:26:32.774Z,16.90
2019-03-31T14:29:01.198Z,16.90
2019-03-31T14:31:29.605Z,16.90
2019-03-31T14:33:58.339Z,16.90
2019-03-31T14:36:26.776Z,16.90
2019-03-31T14:38:55.270Z,16.90
2019-03-31T14:41:23.667Z,17.00
2019-03-31T14:43:52.080Z,17.00
2019-03-31T14:46:20.507Z,16.90
2019-03-31T14:48:48.931Z,17.00
2019-03-31T14:51:17.339Z,16.90
2019-03-31T14:56:13.818Z,16.80
2019-03-31T14:58:42.242Z,16.80
2019-03-31T15:01:10.650Z,16.80
2019-03-31T15:03:39.062Z,16.80
2019-03-31T15:06:07.465Z,16.70
2019-03-31T15:08:35.868Z,16.80
2019-03-31T15:11:04.268Z,16.70
2019-03-31T15:13:32.681Z,16.70
2019-03-31T15:18:29.285Z,16.70
2019-03-31T15:20:57.708Z,16.70
2019-03-31T15:23:29.212Z,16.70
2019-03-31T15:25:56.241Z,16.60
2019-03-31T15:28:24.672Z,16.70
2019-03-31T15:30:53.084Z,16.70
2019-03-31T15:33:21.522Z,16.70
2019-03-31T15:35:49.929Z,16.60
2019-03-31T15:40:48.478Z,16.60
2019-03-31T15:43:16.555Z,16.60
2019-03-31T15:45:44.954Z,16.60
2019-03-31T15:48:13.364Z,16.60
2019-03-31T15:50:41.837Z,16.50
2019-03-31T15:53:10.251Z,16.50
2019-03-31T15:58:06.769Z,16.40
2019-03-31T16:00:35.250Z,16.30
2019-03-31T16:03:03.656Z,16.20
2019-03-31T16:08:00.156Z,16.30
2019-03-31T16:10:28.565Z,16.30
2019-03-31T16:12:56.980Z,16.30
2019-03-31T16:15:25.555Z,16.20
2019-03-31T16:20:22.040Z,16.10
2019-03-31T16:25:32.369Z,16.00
2019-03-31T16:28:00.785Z,16.00
2019-03-31T16:35:25.769Z,15.90
2019-03-31T16:37:54.177Z,15.70
2019-03-31T16:40:22.683Z,15.60
2019-03-31T16:42:51.089Z,15.60
2019-03-31T16:47:47.788Z,15.40
2019-03-31T16:50:16.209Z,15.40
2019-03-31T16:52:45.474Z,15.30
2019-03-31T16:57:42.045Z,15.20
2019-03-31T17:02:38.596Z,15.00
2019-03-31T17:05:20.668Z,14.90
2019-03-31T17:07:37.802Z,14.80
2019-03-31T17:12:35.255Z,14.50
2019-03-31T17:17:33.268Z,14.30
2019-03-31T17:20:01.667Z,14.30
2019-03-31T17:22:30.078Z,14.30
2019-03-31T17:24:58.494Z,14.20
2019-03-31T17:27:26.914Z,14.10
2019-03-31T17:29:55.404Z,13.90
2019-03-31T17:32:23.898Z,13.80
2019-03-31T17:34:52.428Z,13.80
2019-03-31T17:42:17.039Z,13.50
2019-03-31T17:44:45.469Z,13.20
2019-03-31T17:47:15.422Z,13.10
2019-03-31T17:49:43.833Z,13.00
2019-03-31T17:52:12.262Z,12.90
2019-03-31T17:54:40.680Z,12.80
2019-03-31T17:59:37.213Z,12.60
2019-03-31T18:04:33.769Z,12.40
2019-03-31T18:16:54.543Z,11.90
2019-03-31T18:19:22.973Z,11.90
2019-03-31T18:24:19.464Z,11.70
2019-03-31T18:26:47.966Z,11.60
2019-03-31T18:29:16.409Z,11.60
2019-03-31T18:31:44.875Z,11.50
2019-03-31T18:34:13.291Z,11.40
2019-03-31T18:36:41.724Z,11.40
2019-03-31T18:39:10.165Z,11.30
2019-03-31T18:41:38.592Z,11.30
2019-03-31T18:44:07.190Z,11.40
2019-03-31T18:46:35.720Z,11.40
2019-03-31T18:49:04.161Z,11.40
2019-03-31T18:51:32.576Z,11.40
2019-03-31T18:54:05.340Z,11.30
2019-03-31T18:56:41.433Z,11.30
2019-03-31T19:01:47.335Z,11.30
2019-03-31T19:09:25.065Z,11.30
2019-03-31T19:11:57.868Z,11.40
2019-03-31T19:14:27.912Z,11.20
2019-03-31T19:22:11.466Z,11.40
2019-03-31T19:24:41.526Z,11.20
2019-03-31T19:27:23.565Z,11.10
2019-03-31T19:29:59.348Z,11.10
2019-03-31T19:32:29.412Z,11.00
2019-03-31T19:35:15.908Z,10.90
2019-03-31T19:40:27.245Z,10.90
2019-03-31T19:42:57.329Z,10.80
2019-03-31T19:48:12.105Z,10.60
2019-03-31T19:50:42.179Z,10.60
2019-03-31T19:53:21.190Z,10.60
2019-03-31T19:56:06.617Z,10.50
2019-03-31T19:58:27.798Z,10.40
2019-03-31T20:08:52.146Z,10.10
2019-03-31T20:11:22.284Z,10.00
2019-03-31T20:13:58.433Z,10.00
2019-03-31T20:16:31.731Z,10.00
2019-03-31T20:19:01.799Z,10.00
2019-03-31T20:21:32.591Z,9.90
2019-03-31T20:29:34.984Z,9.70
2019-03-31T20:34:40.721Z,9.60
2019-03-31T20:37:13.720Z,9.60
2019-03-31T20:40:00.399Z,9.60
2019-03-31T20:42:30.481Z,9.50
2019-03-31T20:44:58.907Z,9.40
2019-03-31T20:47:27.304Z,9.30
2019-03-31T20:49:55.713Z,9.30
2019-03-31T20:52:24.117Z,9.20
2019-03-31T20:54:52.545Z,9.10
2019-03-31T20:57:20.973Z,9.10
2019-03-31T20:59:49.528Z,9.10
2019-03-31T21:02:18.076Z,9.00
2019-03-31T21:04:46.481Z,9.00
2019-03-31T21:07:14.869Z,8.90
2019-03-31T21:09:45.007Z,8.90
2019-03-31T21:12:13.516Z,8.90
2019-03-31T21:17:10.068Z,8.80
2019-03-31T21:19:38.481Z,8.70
2019-03-31T21:22:06.882Z,8.70
2019-03-31T21:24:35.331Z,8.60
2019-03-31T21:27:03.729Z,8.60
2019-03-31T21:29:51.493Z,8.60
2019-03-31T21:32:19.888Z,8.50
2019-03-31T21:34:48.324Z,8.50
2019-03-31T21:37:16.724Z,8.50
2019-03-31T21:39:45.139Z,8.50
2019-03-31T21:42:13.553Z,8.40
2019-03-31T21:44:41.997Z,8.40
2019-03-31T21:47:10.424Z,8.30
2019-03-31T21:49:38.831Z,8.30
2019-03-31T21:52:07.233Z,8.30
2019-03-31T21:54:35.652Z,8.20
2019-03-31T21:59:33.587Z,8.10
2019-03-31T22:02:02.228Z,8.10
2019-03-31T22:04:30.683Z,8.00
2019-03-31T22:06:59.162Z,8.00
2019-03-31T22:11:55.680Z,8.00
2019-03-31T22:14:24.097Z,7.90
2019-03-31T22:16:52.492Z,7.90
2019-03-31T22:19:20.888Z,7.90
2019-03-31T22:21:49.293Z,7.80
2019-03-31T22:26:45.794Z,7.80
2019-03-31T22:31:42.297Z,7.60
2019-03-31T22:39:08.048Z,7.40
2019-03-31T22:41:36.445Z,7.30
2019-03-31T22:44:05.136Z,7.30
2019-03-31T22:46:33.548Z,7.30
2019-03-31T22:51:30.040Z,7.20
2019-03-31T22:58:54.646Z,7.10
2019-03-31T23:01:23.044Z,7.00
2019-03-31T23:03:51.484Z,7.00
2019-03-31T23:06:19.897Z,6.90
2019-03-31T23:08:48.308Z,6.90
2019-03-31T23:11:16.736Z,6.90
2019-03-31T23:13:45.141Z,6.90
2019-03-31T23:18:41.688Z,6.80
2019-03-31T23:21:10.156Z,6.70
2019-03-31T23:23:38.605Z,6.70
2019-03-31T23:26:07.138Z,6.70
2019-03-31T23:28:37.195Z,6.60
2019-03-31T23:31:05.598Z,6.60
2019-03-31T23:33:33.995Z,6.60
2019-03-31T23:36:02.417Z,6.50
2019-03-31T23:38:30.961Z,6.50
2019-03-31T23:40:59.356Z,6.50
2019-03-31T23:43:27.776Z,6.40
2019-03-31T23:50:52.504Z,6.30
2019-03-31T23:53:20.924Z,6.40
2019-03-31T23:55:49.375Z,6.30
2019-03-31T23:58:37.116Z,6.30
